• Join FlightAware (Why Join?)
  • Login
  • US Flag 
02:03PM EDT


 

Airport Tracker/Info


-or-


 

Live Flight TrackerFlight Track Log ✈ N99BC ✈ 21-Feb-2014 ✈ KBCB - KBTP

Flight Track Log - Related Links

Times and Time Zones

All times are in EST time to prevent confusion due to time zone crossing. See the N99BC flight status page for this flight to view local times or setup timezone preferences in your user account.

Time Position Orientation Groundspeed Altitude Reporting Facility
EST Latitude Longitude Course Direction KTS MPH feet Rate Location/Type
08:21AM 37.2781 -80.2406 84° East 323 372 10,000  Level Washington Center
08:22AM 37.3217 -80.1361 62° Northeast 329 379 10,000  Level Washington Center
08:23AM 37.4061 -80.1125 13° North 279 321 10,000 1,080 Level Washington Center
08:24AM 37.4975 -80.1178 357° North 273 314 12,200 2,220 Climbing Washington Center
08:25AM 37.7098 -80.3833 North  Level FlightAware Approximate
08:25AM 37.6003 -80.1031 North 333 383 14,500  Level Washington Center
08:26AM 37.7949 -80.3833 North  Level FlightAware Approximate
08:26AM 37.7200 -80.0867 North 371 427 17,300  Level Washington Center
08:27AM 37.8331 -80.0697 North 393 452 19,400 1,800 Climbing Washington Center
08:28AM 37.9506 -80.0556 North 411 473 21,000 780 Climbing Washington Center
08:29AM 38.0806 -80.0369 North 436 502 21,000  Level Washington Center
08:30AM 38.2128 -80.0156 North 458 527 21,000  Level Washington Center
08:31AM 38.3344 -79.9964 North 480 552 21,000  Level Washington Center
08:32AM 38.4706 -79.9781 North 480 552 21,000  Level Washington Center
08:33AM 38.6047 -79.9594 North 480 552 21,000  Level Washington Center
08:34AM 38.7408 -79.9408 North 480 552 21,000  Level Washington Center
08:37AM 39.0483 -79.8889 North 499 574 21,000  Level Cleveland Center
08:38AM 39.1867 -79.8683 North 500 575 21,000  Level Cleveland Center
08:39AM 39.3225 -79.8478 North 494 568 21,000  Level Cleveland Center
08:40AM 39.4572 -79.8281 North 488 562 21,000  Level Cleveland Center
08:41AM 39.5931 -79.8069 North 492 566 21,000 -1,020 Level Cleveland Center
08:42AM 39.7272 -79.7856 North 489 563 19,000 -2,160 Descending Cleveland Center
08:43AM 39.8506 -79.7675 North 450 518 16,600 -2,580 Descending Cleveland Center
08:44AM 39.9969 -79.7444 North 446 513 13,800 -2,520 Descending Cleveland Center
08:45AM 40.1156 -79.7267 North 436 502 11,500 -2,100 Descending Cleveland Center
08:46AM 40.2214 -79.7261 360° North 375 432 9,600 -2,160 Descending Cleveland Center
08:47AM 40.3089 -79.7289 359° North 323 372 7,100 -2,100 Descending Cleveland Center
08:48AM 40.3842 -79.7356 356° North 282 325 5,300 -1,560 Descending Cleveland Center
08:49AM 40.4578 -79.7336 North 271 312 4,000 -660 Descending Cleveland Center
08:50AM 40.5419 -79.7261 North 262 302 4,000  Level Cleveland Center
08:51AM 40.6081 -79.7219 North 251 289 4,000 -300 Level Cleveland Center
08:52AM 40.6706 -79.7172 North 239 275 3,400 -540 Descending Cleveland Center
08:53AM 40.7256 -79.7136 North 219 252 3,000 -240 Descending Cleveland Center
08:54AM 40.7783 -79.7278 349° North 207 238 3,000  Level Cleveland Center
08:55AM 40.8206 -79.7589 331° Northwest 195 224 3,000  Level Cleveland Center
08:56AM 40.8133 -79.8044 258° West 151 174 3,000  Level Cleveland Center
08:57AM 40.8011 -79.8517 251° West 138 159 3,000  Level Cleveland Center